createdAt,value
2019-05-26T00:00:13.791Z,8.90
2019-05-26T00:02:51.243Z,9.00
2019-05-26T00:05:28.970Z,9.10
2019-05-26T00:08:06.078Z,9.20
2019-05-26T00:10:43.582Z,9.30
2019-05-26T00:13:20.824Z,9.40
2019-05-26T00:15:58.128Z,9.40
2019-05-26T00:18:35.325Z,9.50
2019-05-26T00:21:12.694Z,9.50
2019-05-26T00:23:50.323Z,9.50
2019-05-26T00:26:27.927Z,9.50
2019-05-26T00:29:06.435Z,9.40
2019-05-26T00:31:44.358Z,9.40
2019-05-26T00:34:21.874Z,9.50
2019-05-26T00:36:59.324Z,9.50
2019-05-26T00:39:36.758Z,9.60
2019-05-26T00:42:14.295Z,9.60
2019-05-26T00:44:51.687Z,9.70
2019-05-26T00:47:29.356Z,9.80
2019-05-26T00:50:07.376Z,9.90
2019-05-26T00:52:45.100Z,10.00
2019-05-26T00:55:22.461Z,10.10
2019-05-26T00:58:00.116Z,10.10
2019-05-26T01:00:42.335Z,10.10
2019-05-26T01:03:20.091Z,10.10
2019-05-26T01:05:58.513Z,10.10
2019-05-26T01:08:35.889Z,10.00
2019-05-26T01:11:13.078Z,10.00
2019-05-26T01:13:50.502Z,10.00
2019-05-26T01:16:28.739Z,10.00
2019-05-26T01:19:06.347Z,10.00
2019-05-26T01:21:43.875Z,10.00
2019-05-26T01:24:21.212Z,10.00
2019-05-26T01:26:58.653Z,10.00
2019-05-26T01:29:36.148Z,10.00
2019-05-26T01:32:14.493Z,9.90
2019-05-26T01:34:51.922Z,10.00
2019-05-26T01:37:29.596Z,10.00
2019-05-26T01:40:07.458Z,10.00
2019-05-26T01:42:44.958Z,10.00
2019-05-26T01:45:22.380Z,9.90
2019-05-26T01:48:00.132Z,9.90
2019-05-26T01:50:37.534Z,9.90
2019-05-26T01:53:14.826Z,10.00
2019-05-26T01:55:52.165Z,9.90
2019-05-26T01:58:29.828Z,10.00
2019-05-26T02:01:07.302Z,9.90
2019-05-26T02:03:44.669Z,10.00
2019-05-26T02:06:22.034Z,10.00
2019-05-26T02:09:00.491Z,10.00
2019-05-26T02:11:38.256Z,10.10
2019-05-26T02:14:15.438Z,10.10
2019-05-26T02:16:52.752Z,10.10
2019-05-26T02:19:31.039Z,10.20
2019-05-26T02:22:08.841Z,10.20
2019-05-26T02:24:46.394Z,10.20
2019-05-26T02:27:24.422Z,10.20
2019-05-26T02:30:01.684Z,10.20
2019-05-26T02:32:40.284Z,10.20
2019-05-26T02:35:18.484Z,10.30
2019-05-26T02:37:55.829Z,10.40
2019-05-26T02:40:33.648Z,10.40
2019-05-26T02:43:13.692Z,10.40
2019-05-26T02:45:51.120Z,10.40
2019-05-26T02:48:28.526Z,10.40
2019-05-26T02:51:06.244Z,10.40
2019-05-26T02:53:50.312Z,10.40
2019-05-26T02:56:27.807Z,10.50
2019-05-26T02:59:06.464Z,10.50
2019-05-26T03:02:00.879Z,10.60
2019-05-26T03:04:23.647Z,10.70
2019-05-26T03:07:02.788Z,10.70
2019-05-26T03:09:41.826Z,10.70
2019-05-26T03:12:35.155Z,10.70
2019-05-26T03:15:13.800Z,10.80
2019-05-26T03:17:52.710Z,10.80
2019-05-26T03:20:32.800Z,10.90
2019-05-26T03:23:10.672Z,10.90
2019-05-26T03:25:48.067Z,11.00
2019-05-26T03:28:25.440Z,11.10
2019-05-26T03:31:02.770Z,11.20
2019-05-26T03:33:40.382Z,11.30
2019-05-26T03:36:17.786Z,11.20
2019-05-26T03:38:55.213Z,11.30
2019-05-26T03:41:32.341Z,11.40
2019-05-26T03:44:10.825Z,11.50
2019-05-26T03:46:48.289Z,11.60
2019-05-26T03:49:25.646Z,11.70
2019-05-26T03:52:03.067Z,11.70
2019-05-26T03:54:41.475Z,11.80
2019-05-26T03:57:19.043Z,11.80
2019-05-26T03:59:56.471Z,11.90
2019-05-26T04:02:33.834Z,12.00
2019-05-26T04:05:11.582Z,12.00
2019-05-26T04:07:48.848Z,12.20
2019-05-26T04:10:26.370Z,12.20
2019-05-26T04:13:03.817Z,12.20
2019-05-26T04:15:41.402Z,12.30
2019-05-26T04:18:18.869Z,12.40
2019-05-26T04:20:56.109Z,12.40
2019-05-26T04:23:33.859Z,12.40
2019-05-26T04:26:11.624Z,12.40
2019-05-26T04:28:50.830Z,12.30
2019-05-26T04:31:28.233Z,12.30
2019-05-26T04:34:05.633Z,12.30
2019-05-26T04:36:43.576Z,12.30
2019-05-26T04:39:20.890Z,12.40
2019-05-26T04:41:58.707Z,12.40
2019-05-26T04:44:36.050Z,12.50
2019-05-26T04:47:13.255Z,12.50
2019-05-26T04:49:50.814Z,12.60
2019-05-26T04:52:28.311Z,12.70
2019-05-26T04:55:07.300Z,12.80
2019-05-26T04:57:44.702Z,12.70
2019-05-26T05:00:22.235Z,12.70
2019-05-26T05:03:03.314Z,12.70
2019-05-26T05:05:39.626Z,12.70
2019-05-26T05:08:16.660Z,12.60
2019-05-26T05:10:54.003Z,12.70
2019-05-26T05:13:31.605Z,12.70
2019-05-26T05:16:09.843Z,12.60
2019-05-26T05:18:47.379Z,12.70
2019-05-26T05:21:24.801Z,12.70
2019-05-26T05:24:13.924Z,12.80
2019-05-26T05:26:52.246Z,12.90
2019-05-26T05:29:30.561Z,13.00
2019-05-26T05:32:08.186Z,13.10
2019-05-26T05:34:46.334Z,13.20
2019-05-26T05:37:25.291Z,13.30
2019-05-26T05:40:03.780Z,13.30
2019-05-26T05:42:41.198Z,13.30
2019-05-26T05:45:19.032Z,13.40
2019-05-26T05:47:57.364Z,13.60
2019-05-26T05:50:38.256Z,13.70
2019-05-26T05:53:14.116Z,13.90
2019-05-26T05:55:51.403Z,13.80
2019-05-26T05:58:30.292Z,13.90
2019-05-26T06:01:07.511Z,13.70
2019-05-26T06:03:45.236Z,13.60
2019-05-26T06:06:22.524Z,13.50
2019-05-26T06:08:59.917Z,13.60
2019-05-26T06:11:37.814Z,13.80
2019-05-26T06:14:15.478Z,13.90
2019-05-26T06:16:53.270Z,13.90
2019-05-26T06:19:31.298Z,13.70
2019-05-26T06:22:08.759Z,13.60
2019-05-26T06:24:46.308Z,13.70
2019-05-26T06:27:24.299Z,13.60
2019-05-26T06:30:01.495Z,13.70
2019-05-26T06:32:39.661Z,13.90
2019-05-26T06:35:16.936Z,13.80
2019-05-26T06:37:56.659Z,13.70
2019-05-26T06:40:35.581Z,13.50
2019-05-26T06:43:13.041Z,13.40
2019-05-26T06:45:50.992Z,13.30
2019-05-26T06:48:28.491Z,13.30
2019-05-26T06:51:06.058Z,13.20
2019-05-26T06:53:44.959Z,13.10
2019-05-26T06:56:22.308Z,13.20
2019-05-26T06:59:02.756Z,13.30
2019-05-26T07:01:38.797Z,13.10
2019-05-26T07:04:16.648Z,13.20
2019-05-26T07:06:54.045Z,13.20
2019-05-26T07:09:33.432Z,13.10
2019-05-26T07:12:10.910Z,13.00
2019-05-26T07:14:48.688Z,13.10
2019-05-26T07:17:26.178Z,13.10
2019-05-26T07:20:05.538Z,13.20
2019-05-26T07:22:49.261Z,13.20
2019-05-26T07:25:27.209Z,13.20
2019-05-26T07:28:06.313Z,13.30
2019-05-26T07:30:44.612Z,13.40
2019-05-26T07:33:23.253Z,13.60
2019-05-26T07:36:02.068Z,14.00
2019-05-26T07:38:40.894Z,14.30
2019-05-26T07:41:19.102Z,14.50
2019-05-26T07:43:56.557Z,14.40
2019-05-26T07:46:34.536Z,14.20
2019-05-26T07:49:12.078Z,14.10
2019-05-26T07:51:51.021Z,14.10
2019-05-26T07:54:28.420Z,14.00
2019-05-26T07:57:09.256Z,14.00
2019-05-26T07:59:46.575Z,14.00
2019-05-26T08:02:24.402Z,13.80
2019-05-26T08:05:01.738Z,13.80
2019-05-26T08:07:42.505Z,13.90
2019-05-26T08:10:19.895Z,14.00
2019-05-26T08:12:57.523Z,13.80
2019-05-26T08:15:35.307Z,13.70
2019-05-26T08:18:15.448Z,13.70
2019-05-26T08:20:53.561Z,13.80
2019-05-26T08:23:30.948Z,13.90
2019-05-26T08:26:08.463Z,13.90
2019-05-26T08:28:46.409Z,14.10
2019-05-26T08:31:24.491Z,14.10
2019-05-26T08:34:02.008Z,14.10
2019-05-26T08:36:39.571Z,14.50
2019-05-26T08:39:17.813Z,14.90
2019-05-26T08:41:55.102Z,15.10
2019-05-26T08:44:32.458Z,15.10
2019-05-26T08:47:11.589Z,15.10
2019-05-26T08:49:49.579Z,15.20
2019-05-26T08:52:27.170Z,15.00
2019-05-26T08:55:04.906Z,14.70
2019-05-26T08:57:43.356Z,14.50
2019-05-26T09:00:21.193Z,14.40
2019-05-26T09:02:58.802Z,14.40
2019-05-26T09:05:36.029Z,14.40
2019-05-26T09:08:13.356Z,14.40
2019-05-26T09:10:51.361Z,14.40
2019-05-26T09:13:30.421Z,14.40
2019-05-26T09:16:08.351Z,14.30
2019-05-26T09:18:46.502Z,14.30
2019-05-26T09:21:24.107Z,14.00
2019-05-26T09:24:02.416Z,14.10
2019-05-26T09:26:40.190Z,14.20
2019-05-26T09:29:18.018Z,14.30
2019-05-26T09:31:56.374Z,14.40
2019-05-26T09:34:33.714Z,14.50
2019-05-26T09:37:11.233Z,14.50
2019-05-26T09:39:48.634Z,14.80
2019-05-26T09:42:26.024Z,14.80
2019-05-26T09:45:03.230Z,14.80
2019-05-26T09:47:42.036Z,14.80
2019-05-26T09:50:19.425Z,14.80
2019-05-26T09:52:58.222Z,14.80
2019-05-26T09:55:35.764Z,14.70
2019-05-26T09:58:13.293Z,14.70
2019-05-26T10:00:50.582Z,14.80
2019-05-26T10:03:28.007Z,14.90
2019-05-26T10:06:05.478Z,14.90
2019-05-26T10:08:43.534Z,14.80
2019-05-26T10:11:21.343Z,14.70
2019-05-26T10:13:59.665Z,14.70
2019-05-26T10:16:37.226Z,14.90
2019-05-26T10:19:14.636Z,15.00
2019-05-26T10:21:52.047Z,15.20
2019-05-26T10:24:30.175Z,15.30
2019-05-26T10:27:09.645Z,15.30
2019-05-26T10:29:47.242Z,15.30
2019-05-26T10:32:24.512Z,15.10
2019-05-26T10:35:02.734Z,15.00
2019-05-26T10:37:43.624Z,15.10
2019-05-26T10:40:22.154Z,15.40
2019-05-26T10:42:59.782Z,15.50
2019-05-26T10:45:44.282Z,15.60
2019-05-26T10:48:21.774Z,15.80
2019-05-26T10:51:01.302Z,15.80
2019-05-26T10:53:38.747Z,15.90
2019-05-26T10:56:16.112Z,15.70
2019-05-26T10:58:53.516Z,15.60
2019-05-26T11:01:31.311Z,15.70
2019-05-26T11:04:09.241Z,15.80
2019-05-26T11:06:46.733Z,15.80
2019-05-26T11:09:24.322Z,16.00
2019-05-26T11:12:02.275Z,16.10
2019-05-26T11:14:41.320Z,16.20
2019-05-26T11:17:18.731Z,16.50
2019-05-26T11:19:57.897Z,16.40
2019-05-26T11:22:35.472Z,16.30
2019-05-26T11:25:13.375Z,16.50
2019-05-26T11:27:51.120Z,16.60
2019-05-26T11:30:29.425Z,16.50
2019-05-26T11:33:06.937Z,16.20
2019-05-26T11:35:44.409Z,16.10
2019-05-26T11:38:22.231Z,16.00
2019-05-26T11:40:59.811Z,16.20
2019-05-26T11:43:37.557Z,16.20
2019-05-26T11:46:16.696Z,16.30
2019-05-26T11:49:06.007Z,16.20
2019-05-26T11:51:43.241Z,16.20
2019-05-26T11:54:20.685Z,16.10
2019-05-26T11:57:03.704Z,16.30
2019-05-26T11:59:46.839Z,16.50
2019-05-26T12:02:21.863Z,16.50
2019-05-26T12:04:59.354Z,16.90
2019-05-26T12:07:37.081Z,17.40
2019-05-26T12:10:16.487Z,17.30
2019-05-26T12:12:54.041Z,17.50
2019-05-26T12:15:32.359Z,17.80
2019-05-26T12:18:10.153Z,18.20
2019-05-26T12:20:47.603Z,18.40
2019-05-26T12:23:24.887Z,18.40
2019-05-26T12:26:02.285Z,18.50
2019-05-26T12:28:40.134Z,18.30
2019-05-26T12:31:17.462Z,18.60
2019-05-26T12:33:55.312Z,18.30
2019-05-26T12:36:32.583Z,18.10
2019-05-26T12:39:10.415Z,18.50
2019-05-26T12:41:48.230Z,18.50
2019-05-26T12:44:25.500Z,18.50
2019-05-26T12:47:03.145Z,18.30
2019-05-26T12:49:52.558Z,18.40
2019-05-26T12:52:29.930Z,18.50
2019-05-26T12:55:09.695Z,18.30
2019-05-26T12:57:47.509Z,18.40
2019-05-26T13:00:25.177Z,18.70
2019-05-26T13:03:02.688Z,18.70
2019-05-26T13:05:40.016Z,18.50
2019-05-26T13:08:17.714Z,18.90
2019-05-26T13:10:55.517Z,18.70
2019-05-26T13:13:33.744Z,18.50
2019-05-26T13:16:11.306Z,18.50
2019-05-26T13:18:50.498Z,18.20
2019-05-26T13:21:27.904Z,18.20
2019-05-26T13:24:06.000Z,18.10
2019-05-26T13:26:43.453Z,18.40
2019-05-26T13:29:20.577Z,18.50
2019-05-26T13:31:57.918Z,18.50
2019-05-26T13:34:37.151Z,18.50
2019-05-26T13:37:14.401Z,18.40
2019-05-26T13:39:54.523Z,18.20
2019-05-26T13:42:34.302Z,18.20
2019-05-26T13:45:22.333Z,18.20
2019-05-26T13:47:52.188Z,18.00
2019-05-26T13:50:29.367Z,17.80
2019-05-26T13:53:08.385Z,17.60
2019-05-26T13:55:45.704Z,17.50
2019-05-26T13:58:24.251Z,17.30
2019-05-26T14:01:01.760Z,17.30
2019-05-26T14:03:40.420Z,17.20
2019-05-26T14:06:17.748Z,17.20
2019-05-26T14:08:55.260Z,17.20
2019-05-26T14:11:33.127Z,17.10
2019-05-26T14:14:10.552Z,17.10
2019-05-26T14:16:49.557Z,17.10
2019-05-26T14:19:29.326Z,17.20
2019-05-26T14:22:06.772Z,17.10
2019-05-26T14:24:53.954Z,17.10
2019-05-26T14:27:30.057Z,17.20
2019-05-26T14:30:08.950Z,17.10
2019-05-26T14:32:46.820Z,17.10
2019-05-26T14:35:27.177Z,17.10
2019-05-26T14:38:07.545Z,17.20
2019-05-26T14:40:45.388Z,17.10
2019-05-26T14:43:24.332Z,17.00
2019-05-26T14:46:02.017Z,17.00
2019-05-26T14:48:42.456Z,17.00
2019-05-26T14:51:21.685Z,17.10
2019-05-26T14:53:59.085Z,17.00
2019-05-26T14:56:36.938Z,16.90
2019-05-26T14:59:14.387Z,16.90
2019-05-26T15:01:52.961Z,16.90
2019-05-26T15:04:31.296Z,16.80
2019-05-26T15:07:10.158Z,16.80
2019-05-26T15:09:47.364Z,16.80
2019-05-26T15:12:24.862Z,16.90
2019-05-26T15:15:03.417Z,16.90
2019-05-26T15:17:42.188Z,16.80
2019-05-26T15:20:20.301Z,16.90
2019-05-26T15:22:58.036Z,17.00
2019-05-26T15:25:37.110Z,17.10
2019-05-26T15:28:15.359Z,17.10
2019-05-26T15:30:53.637Z,17.10
2019-05-26T15:33:30.953Z,17.00
2019-05-26T15:36:08.349Z,17.00
2019-05-26T15:38:45.801Z,16.90
2019-05-26T15:41:24.998Z,16.90
2019-05-26T15:44:02.328Z,16.90
2019-05-26T15:46:40.126Z,17.00
2019-05-26T15:49:17.551Z,17.00
2019-05-26T15:51:55.008Z,17.00
2019-05-26T15:54:33.023Z,16.90
2019-05-26T15:57:11.021Z,16.90
2019-05-26T15:59:48.922Z,16.90
2019-05-26T16:02:26.205Z,17.00
2019-05-26T16:05:04.019Z,16.90
2019-05-26T16:07:41.756Z,16.90
2019-05-26T16:10:21.092Z,16.90
2019-05-26T16:13:01.319Z,16.80
2019-05-26T16:15:38.661Z,16.80
2019-05-26T16:18:16.436Z,16.80
2019-05-26T16:21:02.740Z,16.70
2019-05-26T16:23:33.476Z,16.70
2019-05-26T16:26:12.271Z,16.70
2019-05-26T16:28:49.604Z,16.70
2019-05-26T16:31:27.674Z,16.60
2019-05-26T16:34:06.390Z,16.70
2019-05-26T16:36:43.735Z,16.70
2019-05-26T16:39:36.073Z,16.80
2019-05-26T16:42:02.379Z,16.90
2019-05-26T16:44:39.704Z,16.80
2019-05-26T16:47:17.084Z,16.80
2019-05-26T16:49:54.211Z,16.90
2019-05-26T16:52:32.038Z,16.90
2019-05-26T16:55:09.795Z,16.80
2019-05-26T16:57:47.533Z,16.80
2019-05-26T17:00:25.280Z,16.70
2019-05-26T17:03:02.603Z,16.70
2019-05-26T17:05:40.237Z,16.60
2019-05-26T17:08:17.284Z,16.50
2019-05-26T17:10:54.639Z,16.50
2019-05-26T17:13:33.175Z,16.40
2019-05-26T17:16:10.865Z,16.40
2019-05-26T17:18:48.091Z,16.40
2019-05-26T17:21:25.455Z,16.30
2019-05-26T17:24:03.062Z,16.30
2019-05-26T17:26:40.905Z,16.20
2019-05-26T17:29:18.556Z,16.20
2019-05-26T17:31:56.158Z,16.10
2019-05-26T17:34:33.452Z,16.10
2019-05-26T17:37:11.053Z,16.00
2019-05-26T17:39:48.366Z,16.00
2019-05-26T17:42:25.802Z,15.90
2019-05-26T17:45:03.744Z,15.90
2019-05-26T17:47:43.967Z,15.90
2019-05-26T17:50:21.582Z,15.80
2019-05-26T17:52:59.760Z,15.80
2019-05-26T17:55:39.711Z,15.70
2019-05-26T17:58:17.676Z,15.70
2019-05-26T18:00:54.932Z,15.70
2019-05-26T18:03:32.871Z,15.70
2019-05-26T18:06:10.239Z,15.70
2019-05-26T18:08:47.544Z,15.70
2019-05-26T18:11:27.155Z,15.70
2019-05-26T18:14:05.185Z,15.70
2019-05-26T18:16:42.384Z,15.70
2019-05-26T18:19:20.204Z,15.70
2019-05-26T18:21:58.851Z,15.70
2019-05-26T18:24:36.300Z,15.70
2019-05-26T18:27:13.866Z,15.70
2019-05-26T18:29:53.468Z,15.60
2019-05-26T18:32:31.145Z,15.60
2019-05-26T18:35:10.086Z,15.60
2019-05-26T18:37:47.602Z,15.60
2019-05-26T18:40:24.908Z,15.60
2019-05-26T18:43:02.757Z,15.60
2019-05-26T18:45:41.074Z,15.50
2019-05-26T18:48:18.882Z,15.50
2019-05-26T18:50:56.615Z,15.50
2019-05-26T18:53:34.367Z,15.50
2019-05-26T18:56:11.805Z,15.50
2019-05-26T18:58:49.877Z,15.50
2019-05-26T19:01:27.765Z,15.50
2019-05-26T19:04:05.778Z,15.50
2019-05-26T19:06:43.271Z,15.50
2019-05-26T19:09:32.609Z,15.50
2019-05-26T19:12:10.781Z,15.50
2019-05-26T19:14:48.235Z,15.50
2019-05-26T19:17:26.458Z,15.50
2019-05-26T19:20:15.547Z,15.50
2019-05-26T19:22:43.289Z,15.60
2019-05-26T19:25:21.191Z,15.60
2019-05-26T19:27:58.917Z,15.60
2019-05-26T19:30:40.375Z,15.60
2019-05-26T19:33:17.857Z,15.60
2019-05-26T19:35:55.430Z,15.60
2019-05-26T19:38:32.894Z,15.60
2019-05-26T19:41:10.435Z,15.60
2019-05-26T19:43:48.009Z,15.60
2019-05-26T19:46:28.326Z,15.70
2019-05-26T19:49:06.306Z,15.70
2019-05-26T19:51:43.818Z,15.80
2019-05-26T19:54:22.203Z,15.90
2019-05-26T19:56:59.747Z,15.90
2019-05-26T19:59:40.522Z,15.90
2019-05-26T20:02:18.998Z,15.90
2019-05-26T20:05:28.519Z,15.80
2019-05-26T20:08:20.664Z,15.80
2019-05-26T20:10:58.182Z,15.80
2019-05-26T20:13:35.355Z,15.80
2019-05-26T20:16:14.576Z,15.70
2019-05-26T20:18:51.912Z,15.70
2019-05-26T20:21:29.505Z,15.70
2019-05-26T20:24:07.364Z,15.70
2019-05-26T20:26:45.186Z,15.70
2019-05-26T20:29:26.437Z,15.70
2019-05-26T20:32:05.150Z,15.70
2019-05-26T20:34:42.945Z,15.60
2019-05-26T20:37:20.627Z,15.60
2019-05-26T20:40:00.931Z,15.60
2019-05-26T20:42:38.559Z,15.60
2019-05-26T20:45:16.804Z,15.70
2019-05-26T20:47:54.093Z,15.70
2019-05-26T20:50:31.480Z,15.70
2019-05-26T20:53:08.772Z,15.70
2019-05-26T20:55:46.199Z,15.70
2019-05-26T20:58:23.603Z,15.70
2019-05-26T21:01:00.910Z,15.70
2019-05-26T21:03:38.505Z,15.70
2019-05-26T21:06:15.905Z,15.60
2019-05-26T21:08:53.255Z,15.60
2019-05-26T21:11:30.923Z,15.60
2019-05-26T21:14:08.394Z,15.60
2019-05-26T21:16:45.620Z,15.60
2019-05-26T21:19:23.151Z,15.60
2019-05-26T21:22:00.723Z,15.60
2019-05-26T21:24:38.215Z,15.60
2019-05-26T21:27:15.828Z,15.70
2019-05-26T21:29:53.822Z,15.70
2019-05-26T21:32:32.389Z,15.80
2019-05-26T21:35:10.747Z,15.70
2019-05-26T21:37:48.316Z,15.70
2019-05-26T21:40:25.668Z,15.80
2019-05-26T21:43:03.265Z,15.80
2019-05-26T21:45:41.946Z,15.80
2019-05-26T21:48:19.416Z,15.80
2019-05-26T21:50:56.713Z,15.80
2019-05-26T21:53:34.069Z,15.80
2019-05-26T21:56:11.572Z,15.90
2019-05-26T21:58:49.066Z,15.80
2019-05-26T22:01:26.866Z,15.90
2019-05-26T22:04:04.365Z,15.90
2019-05-26T22:06:41.614Z,15.80
2019-05-26T22:09:19.154Z,15.80
2019-05-26T22:11:56.546Z,15.90
2019-05-26T22:14:33.840Z,15.90
2019-05-26T22:17:11.388Z,15.90
2019-05-26T22:19:49.610Z,15.80
2019-05-26T22:22:26.840Z,15.80
2019-05-26T22:25:04.377Z,15.80
2019-05-26T22:27:42.050Z,15.80
2019-05-26T22:30:20.061Z,15.80
2019-05-26T22:33:00.747Z,15.80
2019-05-26T22:35:38.483Z,15.70
2019-05-26T22:38:16.119Z,15.70
2019-05-26T22:40:53.426Z,15.70
2019-05-26T22:43:30.699Z,15.70
2019-05-26T22:46:08.253Z,15.70
2019-05-26T22:48:45.827Z,15.70
2019-05-26T22:51:23.343Z,15.70
2019-05-26T22:54:00.693Z,15.70
2019-05-26T22:56:38.400Z,15.70
2019-05-26T22:59:15.864Z,15.70
2019-05-26T23:01:53.337Z,15.70
2019-05-26T23:04:31.403Z,15.70
2019-05-26T23:07:09.003Z,15.80
2019-05-26T23:09:46.743Z,15.90
2019-05-26T23:12:24.911Z,15.80
2019-05-26T23:15:02.369Z,15.80
2019-05-26T23:17:41.571Z,15.80
2019-05-26T23:20:18.949Z,15.90
2019-05-26T23:22:56.225Z,15.80
2019-05-26T23:25:33.581Z,15.80
2019-05-26T23:28:11.379Z,15.90
2019-05-26T23:30:50.524Z,15.90
2019-05-26T23:33:27.862Z,15.90
2019-05-26T23:36:05.353Z,15.90
2019-05-26T23:38:42.948Z,15.90
2019-05-26T23:41:20.462Z,15.90
2019-05-26T23:43:57.836Z,16.00
2019-05-26T23:46:35.250Z,16.00
2019-05-26T23:49:12.704Z,16.00
2019-05-26T23:51:50.142Z,16.00
2019-05-26T23:54:27.631Z,16.00
2019-05-26T23:57:04.954Z,16.00
2019-05-26T23:59:42.542Z,16.00
